Swift Current Airport

CYYN | YYN

Swift Current , Saskatchewan , Canada

Saturday, June 6th, 2020 | 23:51

Weather

CYYN 070549Z AUTO 10015G24KT 2SM -RA BR BKN008 OVC013 12/11 A2939 RMK SLP951 DENSITY ALT 3500FT

Charts

No Charts Available

Gates

No Gates Available

Runways

2 Available

Active ATC

Events -Coming Soon-

1 Events Coming Up Soon

Next event:
CYYN Flyout